sensor_id;sensor_type;location;lat;lon;timestamp;P1;durP1;ratioP1;P2;durP2;ratioP2
74789;SDS011;63318;52.406;13.416;2022-09-13T00:01:28;5.30;;;2.50;;
74789;SDS011;63318;52.406;13.416;2022-09-13T00:03:56;4.30;;;2.90;;
74789;SDS011;63318;52.406;13.416;2022-09-13T00:06:24;4.90;;;2.80;;
74789;SDS011;63318;52.406;13.416;2022-09-13T00:08:52;3.90;;;2.60;;
74789;SDS011;63318;52.406;13.416;2022-09-13T00:11:21;5.50;;;2.50;;
74789;SDS011;63318;52.406;13.416;2022-09-13T00:13:52;5.80;;;2.60;;
74789;SDS011;63318;52.406;13.416;2022-09-13T00:16:21;4.50;;;2.50;;
74789;SDS011;63318;52.406;13.416;2022-09-13T00:18:52;4.70;;;2.70;;
74789;SDS011;63318;52.406;13.416;2022-09-13T00:21:21;7.70;;;3.00;;
74789;SDS011;63318;52.406;13.416;2022-09-13T00:23:50;3.90;;;2.30;;
74789;SDS011;63318;52.406;13.416;2022-09-13T00:26:21;5.10;;;2.50;;
74789;SDS011;63318;52.406;13.416;2022-09-13T00:28:51;4.30;;;2.40;;
74789;SDS011;63318;52.406;13.416;2022-09-13T00:31:21;5.70;;;2.80;;
74789;SDS011;63318;52.406;13.416;2022-09-13T00:33:51;5.70;;;2.40;;
74789;SDS011;63318;52.406;13.416;2022-09-13T00:36:19;4.30;;;2.40;;
74789;SDS011;63318;52.406;13.416;2022-09-13T00:38:47;4.10;;;2.40;;
74789;SDS011;63318;52.406;13.416;2022-09-13T00:41:17;4.10;;;2.40;;
74789;SDS011;63318;52.406;13.416;2022-09-13T00:43:47;5.50;;;2.70;;
74789;SDS011;63318;52.406;13.416;2022-09-13T00:46:19;4.40;;;2.80;;
74789;SDS011;63318;52.406;13.416;2022-09-13T00:48:54;5.10;;;2.70;;
74789;SDS011;63318;52.406;13.416;2022-09-13T00:51:26;5.60;;;3.10;;
74789;SDS011;63318;52.406;13.416;2022-09-13T00:53:55;5.30;;;3.20;;
74789;SDS011;63318;52.406;13.416;2022-09-13T00:56:26;5.90;;;3.50;;
74789;SDS011;63318;52.406;13.416;2022-09-13T00:58:59;5.70;;;3.00;;
74789;SDS011;63318;52.406;13.416;2022-09-13T01:01:34;4.70;;;3.40;;
74789;SDS011;63318;52.406;13.416;2022-09-13T01:04:07;4.80;;;3.20;;
74789;SDS011;63318;52.406;13.416;2022-09-13T01:06:36;4.80;;;2.90;;
74789;SDS011;63318;52.406;13.416;2022-09-13T01:09:07;4.40;;;2.60;;
74789;SDS011;63318;52.406;13.416;2022-09-13T01:11:38;5.00;;;2.80;;
74789;SDS011;63318;52.406;13.416;2022-09-13T01:14:17;4.50;;;2.80;;
74789;SDS011;63318;52.406;13.416;2022-09-13T01:16:46;4.30;;;2.50;;
74789;SDS011;63318;52.406;13.416;2022-09-13T01:19:14;4.00;;;2.50;;
74789;SDS011;63318;52.406;13.416;2022-09-13T01:24:59;6.10;;;2.70;;
74789;SDS011;63318;52.406;13.416;2022-09-13T01:30:43;4.30;;;2.90;;
74789;SDS011;63318;52.406;13.416;2022-09-13T01:33:24;4.00;;;2.50;;
74789;SDS011;63318;52.406;13.416;2022-09-13T01:36:06;4.40;;;2.40;;
74789;SDS011;63318;52.406;13.416;2022-09-13T01:38:48;4.50;;;3.00;;
74789;SDS011;63318;52.406;13.416;2022-09-13T01:41:32;5.20;;;3.00;;
74789;SDS011;63318;52.406;13.416;2022-09-13T01:44:24;4.50;;;2.80;;
74789;SDS011;63318;52.406;13.416;2022-09-13T01:47:04;4.30;;;2.70;;
74789;SDS011;63318;52.406;13.416;2022-09-13T01:49:44;4.60;;;2.90;;
74789;SDS011;63318;52.406;13.416;2022-09-13T01:52:22;4.70;;;2.80;;
74789;SDS011;63318;52.406;13.416;2022-09-13T01:54:57;5.20;;;2.80;;
74789;SDS011;63318;52.406;13.416;2022-09-13T01:57:34;4.80;;;2.60;;
74789;SDS011;63318;52.406;13.416;2022-09-13T02:00:09;4.30;;;2.60;;
74789;SDS011;63318;52.406;13.416;2022-09-13T02:02:40;4.40;;;2.70;;
74789;SDS011;63318;52.406;13.416;2022-09-13T02:05:13;4.70;;;2.70;;
74789;SDS011;63318;52.406;13.416;2022-09-13T02:07:48;5.20;;;2.70;;
74789;SDS011;63318;52.406;13.416;2022-09-13T02:10:23;4.50;;;2.80;;
74789;SDS011;63318;52.406;13.416;2022-09-13T02:12:55;3.80;;;2.50;;
74789;SDS011;63318;52.406;13.416;2022-09-13T02:15:28;4.60;;;2.90;;
74789;SDS011;63318;52.406;13.416;2022-09-13T02:18:03;5.20;;;2.60;;
74789;SDS011;63318;52.406;13.416;2022-09-13T02:20:34;4.00;;;2.50;;
74789;SDS011;63318;52.406;13.416;2022-09-13T02:23:08;4.50;;;2.60;;
74789;SDS011;63318;52.406;13.416;2022-09-13T02:25:38;4.60;;;2.60;;
74789;SDS011;63318;52.406;13.416;2022-09-13T02:28:10;5.00;;;2.90;;
74789;SDS011;63318;52.406;13.416;2022-09-13T02:30:45;4.90;;;2.50;;
74789;SDS011;63318;52.406;13.416;2022-09-13T02:33:17;4.30;;;2.40;;
74789;SDS011;63318;52.406;13.416;2022-09-13T02:35:52;4.90;;;3.00;;
74789;SDS011;63318;52.406;13.416;2022-09-13T02:38:26;4.50;;;2.90;;
74789;SDS011;63318;52.406;13.416;2022-09-13T02:40:58;4.80;;;2.90;;
74789;SDS011;63318;52.406;13.416;2022-09-13T02:43:33;5.00;;;2.60;;
74789;SDS011;63318;52.406;13.416;2022-09-13T02:46:08;5.10;;;2.80;;
74789;SDS011;63318;52.406;13.416;2022-09-13T02:48:54;4.60;;;2.60;;
74789;SDS011;63318;52.406;13.416;2022-09-13T02:54:03;5.30;;;2.60;;
74789;SDS011;63318;52.406;13.416;2022-09-13T02:56:49;5.20;;;2.70;;
74789;SDS011;63318;52.406;13.416;2022-09-13T02:59:22;5.30;;;3.10;;
74789;SDS011;63318;52.406;13.416;2022-09-13T03:01:54;5.10;;;3.10;;
74789;SDS011;63318;52.406;13.416;2022-09-13T03:04:25;4.40;;;2.90;;
74789;SDS011;63318;52.406;13.416;2022-09-13T03:06:54;4.80;;;3.20;;
74789;SDS011;63318;52.406;13.416;2022-09-13T03:09:22;4.90;;;3.30;;
74789;SDS011;63318;52.406;13.416;2022-09-13T03:11:55;5.70;;;3.40;;
74789;SDS011;63318;52.406;13.416;2022-09-13T03:14:39;4.90;;;3.70;;
74789;SDS011;63318;52.406;13.416;2022-09-13T03:17:17;5.40;;;3.10;;
74789;SDS011;63318;52.406;13.416;2022-09-13T03:20:02;5.20;;;3.00;;
74789;SDS011;63318;52.406;13.416;2022-09-13T03:22:54;6.80;;;3.00;;
74789;SDS011;63318;52.406;13.416;2022-09-13T03:25:37;6.60;;;3.00;;
74789;SDS011;63318;52.406;13.416;2022-09-13T03:28:25;4.80;;;2.70;;
74789;SDS011;63318;52.406;13.416;2022-09-13T03:31:02;5.30;;;3.50;;
74789;SDS011;63318;52.406;13.416;2022-09-13T03:33:36;5.70;;;3.00;;
74789;SDS011;63318;52.406;13.416;2022-09-13T03:36:13;4.60;;;3.00;;
74789;SDS011;63318;52.406;13.416;2022-09-13T03:38:46;4.80;;;3.10;;
74789;SDS011;63318;52.406;13.416;2022-09-13T03:41:26;5.40;;;2.70;;
74789;SDS011;63318;52.406;13.416;2022-09-13T03:44:00;5.60;;;3.30;;
74789;SDS011;63318;52.406;13.416;2022-09-13T03:46:32;5.10;;;2.70;;
74789;SDS011;63318;52.406;13.416;2022-09-13T03:51:32;5.10;;;2.70;;
74789;SDS011;63318;52.406;13.416;2022-09-13T03:54:01;5.40;;;2.70;;
74789;SDS011;63318;52.406;13.416;2022-09-13T03:56:33;6.30;;;2.90;;
74789;SDS011;63318;52.406;13.416;2022-09-13T03:59:01;4.50;;;3.10;;
74789;SDS011;63318;52.406;13.416;2022-09-13T04:01:30;8.60;;;3.30;;
74789;SDS011;63318;52.406;13.416;2022-09-13T04:03:58;7.00;;;3.30;;
74789;SDS011;63318;52.406;13.416;2022-09-13T04:06:26;7.10;;;3.70;;
74789;SDS011;63318;52.406;13.416;2022-09-13T04:08:54;5.20;;;3.20;;
74789;SDS011;63318;52.406;13.416;2022-09-13T04:11:22;5.20;;;3.10;;
74789;SDS011;63318;52.406;13.416;2022-09-13T04:13:51;5.20;;;3.30;;
74789;SDS011;63318;52.406;13.416;2022-09-13T04:16:19;5.80;;;3.20;;
74789;SDS011;63318;52.406;13.416;2022-09-13T04:18:47;4.50;;;3.20;;
74789;SDS011;63318;52.406;13.416;2022-09-13T04:21:15;7.60;;;3.30;;
74789;SDS011;63318;52.406;13.416;2022-09-13T04:23:43;4.70;;;3.00;;
74789;SDS011;63318;52.406;13.416;2022-09-13T04:26:16;6.70;;;3.20;;
74789;SDS011;63318;52.406;13.416;2022-09-13T04:28:44;5.30;;;3.70;;
74789;SDS011;63318;52.406;13.416;2022-09-13T04:31:13;5.40;;;3.20;;
74789;SDS011;63318;52.406;13.416;2022-09-13T04:33:41;5.20;;;3.30;;
74789;SDS011;63318;52.406;13.416;2022-09-13T04:36:09;5.70;;;3.80;;
74789;SDS011;63318;52.406;13.416;2022-09-13T04:38:37;6.40;;;3.70;;
74789;SDS011;63318;52.406;13.416;2022-09-13T04:41:05;6.00;;;3.90;;
74789;SDS011;63318;52.406;13.416;2022-09-13T04:43:34;6.00;;;4.30;;
74789;SDS011;63318;52.406;13.416;2022-09-13T04:46:02;6.50;;;4.00;;
74789;SDS011;63318;52.406;13.416;2022-09-13T04:48:30;6.10;;;4.30;;
74789;SDS011;63318;52.406;13.416;2022-09-13T04:51:01;6.10;;;4.20;;
74789;SDS011;63318;52.406;13.416;2022-09-13T04:53:30;8.10;;;3.80;;
74789;SDS011;63318;52.406;13.416;2022-09-13T04:56:00;6.10;;;4.00;;
74789;SDS011;63318;52.406;13.416;2022-09-13T04:58:29;5.80;;;3.20;;
74789;SDS011;63318;52.406;13.416;2022-09-13T05:01:01;5.60;;;3.50;;
74789;SDS011;63318;52.406;13.416;2022-09-13T05:03:30;5.50;;;3.10;;
74789;SDS011;63318;52.406;13.416;2022-09-13T05:06:01;6.50;;;4.00;;
74789;SDS011;63318;52.406;13.416;2022-09-13T05:08:30;5.20;;;3.90;;
74789;SDS011;63318;52.406;13.416;2022-09-13T05:10:59;5.70;;;4.00;;
74789;SDS011;63318;52.406;13.416;2022-09-13T05:13:28;6.00;;;4.60;;
74789;SDS011;63318;52.406;13.416;2022-09-13T05:15:57;6.90;;;5.00;;
74789;SDS011;63318;52.406;13.416;2022-09-13T05:18:27;6.70;;;4.60;;
74789;SDS011;63318;52.406;13.416;2022-09-13T05:20:56;6.40;;;4.10;;
74789;SDS011;63318;52.406;13.416;2022-09-13T05:23:25;7.70;;;4.50;;
74789;SDS011;63318;52.406;13.416;2022-09-13T05:25:55;6.50;;;4.10;;
74789;SDS011;63318;52.406;13.416;2022-09-13T05:28:25;5.60;;;3.90;;
74789;SDS011;63318;52.406;13.416;2022-09-13T05:30:56;9.00;;;4.50;;
74789;SDS011;63318;52.406;13.416;2022-09-13T05:33:27;7.00;;;5.10;;
74789;SDS011;63318;52.406;13.416;2022-09-13T05:35:57;6.90;;;5.10;;
74789;SDS011;63318;52.406;13.416;2022-09-13T05:38:25;6.90;;;4.60;;
74789;SDS011;63318;52.406;13.416;2022-09-13T05:40:54;5.40;;;3.90;;
74789;SDS011;63318;52.406;13.416;2022-09-13T05:43:23;6.20;;;4.30;;
74789;SDS011;63318;52.406;13.416;2022-09-13T05:46:00;5.40;;;3.80;;
74789;SDS011;63318;52.406;13.416;2022-09-13T05:48:30;7.20;;;4.80;;
74789;SDS011;63318;52.406;13.416;2022-09-13T05:51:04;8.00;;;4.70;;
74789;SDS011;63318;52.406;13.416;2022-09-13T05:53:33;7.30;;;5.30;;
74789;SDS011;63318;52.406;13.416;2022-09-13T05:56:02;6.80;;;5.10;;
74789;SDS011;63318;52.406;13.416;2022-09-13T05:58:31;6.20;;;4.30;;
74789;SDS011;63318;52.406;13.416;2022-09-13T06:00:59;7.90;;;4.80;;
74789;SDS011;63318;52.406;13.416;2022-09-13T06:03:27;8.00;;;4.70;;
74789;SDS011;63318;52.406;13.416;2022-09-13T06:05:56;10.90;;;5.10;;
74789;SDS011;63318;52.406;13.416;2022-09-13T06:08:25;7.30;;;5.20;;
74789;SDS011;63318;52.406;13.416;2022-09-13T06:10:55;7.80;;;5.40;;
74789;SDS011;63318;52.406;13.416;2022-09-13T06:13:25;8.30;;;5.10;;
74789;SDS011;63318;52.406;13.416;2022-09-13T06:15:55;7.20;;;4.80;;
74789;SDS011;63318;52.406;13.416;2022-09-13T06:18:24;8.30;;;4.70;;
74789;SDS011;63318;52.406;13.416;2022-09-13T06:20:57;9.20;;;4.80;;
74789;SDS011;63318;52.406;13.416;2022-09-13T06:23:26;8.50;;;4.70;;
74789;SDS011;63318;52.406;13.416;2022-09-13T06:26:02;7.20;;;4.70;;
74789;SDS011;63318;52.406;13.416;2022-09-13T06:28:32;14.70;;;4.80;;
74789;SDS011;63318;52.406;13.416;2022-09-13T06:31:02;7.00;;;4.80;;
74789;SDS011;63318;52.406;13.416;2022-09-13T06:33:33;8.30;;;4.80;;
74789;SDS011;63318;52.406;13.416;2022-09-13T06:36:03;8.80;;;5.40;;
74789;SDS011;63318;52.406;13.416;2022-09-13T06:38:33;7.70;;;5.50;;
74789;SDS011;63318;52.406;13.416;2022-09-13T06:41:03;8.60;;;6.10;;
74789;SDS011;63318;52.406;13.416;2022-09-13T06:43:33;8.60;;;5.10;;
74789;SDS011;63318;52.406;13.416;2022-09-13T06:46:02;7.90;;;5.10;;
74789;SDS011;63318;52.406;13.416;2022-09-13T06:48:32;9.40;;;6.30;;
74789;SDS011;63318;52.406;13.416;2022-09-13T06:51:02;8.40;;;5.50;;
74789;SDS011;63318;52.406;13.416;2022-09-13T06:53:32;8.00;;;5.10;;
74789;SDS011;63318;52.406;13.416;2022-09-13T06:56:02;7.80;;;5.30;;
74789;SDS011;63318;52.406;13.416;2022-09-13T06:58:35;9.50;;;5.20;;
74789;SDS011;63318;52.406;13.416;2022-09-13T07:01:20;9.10;;;5.10;;
74789;SDS011;63318;52.406;13.416;2022-09-13T07:03:51;8.40;;;5.40;;
74789;SDS011;63318;52.406;13.416;2022-09-13T07:08:50;7.90;;;5.20;;
74789;SDS011;63318;52.406;13.416;2022-09-13T07:11:20;8.90;;;5.30;;
74789;SDS011;63318;52.406;13.416;2022-09-13T07:13:49;9.60;;;5.20;;
74789;SDS011;63318;52.406;13.416;2022-09-13T07:16:20;8.10;;;5.80;;
74789;SDS011;63318;52.406;13.416;2022-09-13T07:18:51;8.10;;;5.80;;
74789;SDS011;63318;52.406;13.416;2022-09-13T07:21:20;6.90;;;5.40;;
74789;SDS011;63318;52.406;13.416;2022-09-13T07:23:50;8.10;;;5.20;;
74789;SDS011;63318;52.406;13.416;2022-09-13T07:26:20;8.70;;;5.80;;
74789;SDS011;63318;52.406;13.416;2022-09-13T07:28:51;9.20;;;5.80;;
74789;SDS011;63318;52.406;13.416;2022-09-13T07:31:22;8.20;;;5.80;;
74789;SDS011;63318;52.406;13.416;2022-09-13T07:33:53;10.60;;;6.10;;
74789;SDS011;63318;52.406;13.416;2022-09-13T07:36:23;9.30;;;5.80;;
74789;SDS011;63318;52.406;13.416;2022-09-13T07:38:53;8.20;;;5.90;;
74789;SDS011;63318;52.406;13.416;2022-09-13T07:41:22;9.60;;;5.50;;
74789;SDS011;63318;52.406;13.416;2022-09-13T07:43:52;6.60;;;5.30;;
74789;SDS011;63318;52.406;13.416;2022-09-13T07:46:22;8.60;;;5.90;;
74789;SDS011;63318;52.406;13.416;2022-09-13T07:48:52;9.60;;;5.70;;
74789;SDS011;63318;52.406;13.416;2022-09-13T07:51:22;7.90;;;5.30;;
74789;SDS011;63318;52.406;13.416;2022-09-13T07:53:53;7.20;;;5.70;;
74789;SDS011;63318;52.406;13.416;2022-09-13T07:56:23;10.10;;;5.70;;
74789;SDS011;63318;52.406;13.416;2022-09-13T07:58:52;8.50;;;6.10;;
74789;SDS011;63318;52.406;13.416;2022-09-13T08:01:22;9.70;;;6.00;;
74789;SDS011;63318;52.406;13.416;2022-09-13T08:03:52;8.60;;;6.50;;
74789;SDS011;63318;52.406;13.416;2022-09-13T08:06:21;8.10;;;6.10;;
74789;SDS011;63318;52.406;13.416;2022-09-13T08:08:51;9.90;;;6.00;;
74789;SDS011;63318;52.406;13.416;2022-09-13T08:11:20;8.30;;;5.30;;
74789;SDS011;63318;52.406;13.416;2022-09-13T08:13:50;9.00;;;6.30;;
74789;SDS011;63318;52.406;13.416;2022-09-13T08:16:20;9.10;;;5.90;;
74789;SDS011;63318;52.406;13.416;2022-09-13T08:18:49;10.70;;;6.20;;
74789;SDS011;63318;52.406;13.416;2022-09-13T08:21:19;9.70;;;6.10;;
74789;SDS011;63318;52.406;13.416;2022-09-13T08:23:47;7.40;;;5.90;;
74789;SDS011;63318;52.406;13.416;2022-09-13T08:26:19;8.80;;;5.90;;
74789;SDS011;63318;52.406;13.416;2022-09-13T08:28:47;8.60;;;6.20;;
74789;SDS011;63318;52.406;13.416;2022-09-13T08:31:21;7.40;;;5.50;;
74789;SDS011;63318;52.406;13.416;2022-09-13T08:33:49;7.80;;;5.70;;
74789;SDS011;63318;52.406;13.416;2022-09-13T08:36:17;9.20;;;6.00;;
74789;SDS011;63318;52.406;13.416;2022-09-13T08:38:46;9.80;;;5.90;;
74789;SDS011;63318;52.406;13.416;2022-09-13T08:41:20;9.60;;;5.40;;
74789;SDS011;63318;52.406;13.416;2022-09-13T08:44:12;10.30;;;6.00;;
74789;SDS011;63318;52.406;13.416;2022-09-13T08:46:47;9.60;;;6.00;;
74789;SDS011;63318;52.406;13.416;2022-09-13T08:49:18;8.50;;;6.00;;
74789;SDS011;63318;52.406;13.416;2022-09-13T08:51:52;9.20;;;6.30;;
74789;SDS011;63318;52.406;13.416;2022-09-13T08:54:24;9.40;;;6.40;;
74789;SDS011;63318;52.406;13.416;2022-09-13T08:56:54;7.70;;;4.90;;
74789;SDS011;63318;52.406;13.416;2022-09-13T08:59:35;10.80;;;5.70;;
74789;SDS011;63318;52.406;13.416;2022-09-13T09:04:47;10.00;;;6.10;;
74789;SDS011;63318;52.406;13.416;2022-09-13T09:07:21;9.60;;;5.80;;
74789;SDS011;63318;52.406;13.416;2022-09-13T09:09:52;8.80;;;5.50;;
74789;SDS011;63318;52.406;13.416;2022-09-13T09:12:26;9.20;;;5.80;;
74789;SDS011;63318;52.406;13.416;2022-09-13T09:14:59;9.40;;;5.70;;
74789;SDS011;63318;52.406;13.416;2022-09-13T09:17:33;8.50;;;6.30;;
74789;SDS011;63318;52.406;13.416;2022-09-13T09:20:15;7.20;;;5.00;;
74789;SDS011;63318;52.406;13.416;2022-09-13T09:22:50;9.10;;;5.40;;
74789;SDS011;63318;52.406;13.416;2022-09-13T09:25:20;8.20;;;5.60;;
74789;SDS011;63318;52.406;13.416;2022-09-13T09:27:50;7.90;;;5.10;;
74789;SDS011;63318;52.406;13.416;2022-09-13T09:30:19;8.90;;;5.30;;
74789;SDS011;63318;52.406;13.416;2022-09-13T09:32:49;8.60;;;5.80;;
74789;SDS011;63318;52.406;13.416;2022-09-13T09:35:30;8.70;;;5.00;;
74789;SDS011;63318;52.406;13.416;2022-09-13T09:38:22;7.70;;;5.60;;
74789;SDS011;63318;52.406;13.416;2022-09-13T09:43:27;9.30;;;5.80;;
74789;SDS011;63318;52.406;13.416;2022-09-13T09:45:59;7.90;;;4.90;;
74789;SDS011;63318;52.406;13.416;2022-09-13T09:48:29;8.80;;;5.70;;
74789;SDS011;63318;52.406;13.416;2022-09-13T09:51:06;8.20;;;5.60;;
74789;SDS011;63318;52.406;13.416;2022-09-13T09:53:37;8.90;;;6.10;;
74789;SDS011;63318;52.406;13.416;2022-09-13T09:56:14;8.00;;;5.10;;
74789;SDS011;63318;52.406;13.416;2022-09-13T09:58:47;9.50;;;5.40;;
74789;SDS011;63318;52.406;13.416;2022-09-13T10:01:18;9.80;;;5.80;;
74789;SDS011;63318;52.406;13.416;2022-09-13T10:03:51;7.60;;;4.30;;
74789;SDS011;63318;52.406;13.416;2022-09-13T10:06:30;7.60;;;5.10;;
74789;SDS011;63318;52.406;13.416;2022-09-13T10:08:59;8.50;;;4.90;;
74789;SDS011;63318;52.406;13.416;2022-09-13T10:14:28;8.80;;;5.20;;
74789;SDS011;63318;52.406;13.416;2022-09-13T10:17:04;9.10;;;5.20;;
74789;SDS011;63318;52.406;13.416;2022-09-13T10:19:54;9.30;;;5.00;;
74789;SDS011;63318;52.406;13.416;2022-09-13T10:22:24;7.70;;;4.40;;
74789;SDS011;63318;52.406;13.416;2022-09-13T10:24:53;8.60;;;4.90;;
74789;SDS011;63318;52.406;13.416;2022-09-13T10:27:29;7.60;;;4.70;;
74789;SDS011;63318;52.406;13.416;2022-09-13T10:30:02;7.40;;;4.80;;
74789;SDS011;63318;52.406;13.416;2022-09-13T10:32:31;8.70;;;5.20;;
74789;SDS011;63318;52.406;13.416;2022-09-13T10:35:01;7.20;;;4.60;;
74789;SDS011;63318;52.406;13.416;2022-09-13T10:37:33;7.50;;;4.70;;
74789;SDS011;63318;52.406;13.416;2022-09-13T10:40:03;6.80;;;4.70;;
74789;SDS011;63318;52.406;13.416;2022-09-13T10:42:42;7.00;;;4.50;;
74789;SDS011;63318;52.406;13.416;2022-09-13T10:45:20;7.70;;;4.70;;
74789;SDS011;63318;52.406;13.416;2022-09-13T10:47:50;9.70;;;4.90;;
74789;SDS011;63318;52.406;13.416;2022-09-13T10:50:21;6.40;;;4.20;;
74789;SDS011;63318;52.406;13.416;2022-09-13T10:52:52;8.20;;;4.40;;
74789;SDS011;63318;52.406;13.416;2022-09-13T10:55:31;7.60;;;4.40;;
74789;SDS011;63318;52.406;13.416;2022-09-13T10:58:14;8.40;;;4.60;;
74789;SDS011;63318;52.406;13.416;2022-09-13T11:00:48;7.90;;;4.20;;
74789;SDS011;63318;52.406;13.416;2022-09-13T11:03:43;9.00;;;4.60;;
74789;SDS011;63318;52.406;13.416;2022-09-13T11:06:25;8.60;;;4.50;;
74789;SDS011;63318;52.406;13.416;2022-09-13T11:09:02;6.10;;;4.10;;
74789;SDS011;63318;52.406;13.416;2022-09-13T11:11:39;7.40;;;4.50;;
74789;SDS011;63318;52.406;13.416;2022-09-13T11:14:17;8.00;;;4.50;;
74789;SDS011;63318;52.406;13.416;2022-09-13T11:17:03;6.80;;;4.30;;
74789;SDS011;63318;52.406;13.416;2022-09-13T11:25:31;6.50;;;4.90;;
74789;SDS011;63318;52.406;13.416;2022-09-13T11:28:16;8.70;;;5.30;;
74789;SDS011;63318;52.406;13.416;2022-09-13T11:30:59;7.70;;;4.70;;
74789;SDS011;63318;52.406;13.416;2022-09-13T11:33:43;7.40;;;5.00;;
74789;SDS011;63318;52.406;13.416;2022-09-13T11:36:24;7.60;;;4.90;;
74789;SDS011;63318;52.406;13.416;2022-09-13T11:41:41;8.10;;;5.10;;
74789;SDS011;63318;52.406;13.416;2022-09-13T11:44:23;7.40;;;4.80;;
74789;SDS011;63318;52.406;13.416;2022-09-13T11:46:59;7.60;;;5.20;;
74789;SDS011;63318;52.406;13.416;2022-09-13T11:49:39;6.80;;;5.30;;
74789;SDS011;63318;52.406;13.416;2022-09-13T11:52:31;7.80;;;5.00;;
74789;SDS011;63318;52.406;13.416;2022-09-13T11:55:13;8.00;;;5.40;;
74789;SDS011;63318;52.406;13.416;2022-09-13T11:57:47;6.70;;;4.90;;
74789;SDS011;63318;52.406;13.416;2022-09-13T12:00:22;11.10;;;5.60;;
74789;SDS011;63318;52.406;13.416;2022-09-13T12:03:00;8.30;;;5.60;;
74789;SDS011;63318;52.406;13.416;2022-09-13T12:05:35;9.50;;;5.30;;
74789;SDS011;63318;52.406;13.416;2022-09-13T12:08:17;9.00;;;5.30;;
74789;SDS011;63318;52.406;13.416;2022-09-13T12:13:18;9.60;;;5.70;;
74789;SDS011;63318;52.406;13.416;2022-09-13T12:15:50;8.90;;;4.70;;
74789;SDS011;63318;52.406;13.416;2022-09-13T12:18:23;9.20;;;5.30;;
74789;SDS011;63318;52.406;13.416;2022-09-13T12:20:57;6.30;;;4.40;;
74789;SDS011;63318;52.406;13.416;2022-09-13T12:23:32;7.90;;;4.90;;
74789;SDS011;63318;52.406;13.416;2022-09-13T12:26:06;7.40;;;4.50;;
74789;SDS011;63318;52.406;13.416;2022-09-13T12:28:39;8.90;;;4.90;;
74789;SDS011;63318;52.406;13.416;2022-09-13T12:31:13;8.10;;;5.00;;
74789;SDS011;63318;52.406;13.416;2022-09-13T12:33:46;9.30;;;5.20;;
74789;SDS011;63318;52.406;13.416;2022-09-13T12:36:25;7.70;;;5.70;;
74789;SDS011;63318;52.406;13.416;2022-09-13T12:42:02;9.30;;;5.60;;
74789;SDS011;63318;52.406;13.416;2022-09-13T12:44:59;8.60;;;6.10;;
74789;SDS011;63318;52.406;13.416;2022-09-13T12:51:09;8.40;;;6.00;;
74789;SDS011;63318;52.406;13.416;2022-09-13T12:56:50;8.20;;;4.90;;
74789;SDS011;63318;52.406;13.416;2022-09-13T12:59:37;9.80;;;5.70;;
74789;SDS011;63318;52.406;13.416;2022-09-13T13:02:28;7.60;;;4.90;;
74789;SDS011;63318;52.406;13.416;2022-09-13T13:05:04;7.30;;;5.40;;
74789;SDS011;63318;52.406;13.416;2022-09-13T13:07:48;8.50;;;5.70;;
74789;SDS011;63318;52.406;13.416;2022-09-13T13:10:27;7.70;;;4.90;;
74789;SDS011;63318;52.406;13.416;2022-09-13T13:13:09;9.00;;;5.60;;
74789;SDS011;63318;52.406;13.416;2022-09-13T13:18:28;10.50;;;6.10;;
74789;SDS011;63318;52.406;13.416;2022-09-13T13:27:07;10.20;;;5.80;;
74789;SDS011;63318;52.406;13.416;2022-09-13T13:33:10;10.70;;;6.90;;
74789;SDS011;63318;52.406;13.416;2022-09-13T13:35:40;9.80;;;6.90;;
74789;SDS011;63318;52.406;13.416;2022-09-13T13:41:06;10.60;;;6.50;;
74789;SDS011;63318;52.406;13.416;2022-09-13T13:44:56;10.40;;;6.50;;
74789;SDS011;63318;52.406;13.416;2022-09-13T13:50:26;12.40;;;7.60;;
74789;SDS011;63318;52.406;13.416;2022-09-13T13:52:56;11.20;;;6.20;;
74789;SDS011;63318;52.406;13.416;2022-09-13T13:55:41;12.00;;;6.60;;
74789;SDS011;63318;52.406;13.416;2022-09-13T13:58:14;10.50;;;7.50;;
74789;SDS011;63318;52.406;13.416;2022-09-13T14:00:53;11.40;;;7.60;;
74789;SDS011;63318;52.406;13.416;2022-09-13T14:03:27;11.50;;;7.70;;
74789;SDS011;63318;52.406;13.416;2022-09-13T14:06:15;13.70;;;7.70;;
74789;SDS011;63318;52.406;13.416;2022-09-13T14:08:53;12.20;;;7.50;;
74789;SDS011;63318;52.406;13.416;2022-09-13T14:11:35;10.50;;;7.50;;
74789;SDS011;63318;52.406;13.416;2022-09-13T14:14:27;8.80;;;6.80;;
74789;SDS011;63318;52.406;13.416;2022-09-13T14:17:17;9.50;;;6.20;;
74789;SDS011;63318;52.406;13.416;2022-09-13T14:20:02;10.70;;;6.80;;
74789;SDS011;63318;52.406;13.416;2022-09-13T14:22:34;10.30;;;6.60;;
74789;SDS011;63318;52.406;13.416;2022-09-13T14:25:14;10.70;;;6.60;;
74789;SDS011;63318;52.406;13.416;2022-09-13T14:27:48;9.40;;;6.10;;
74789;SDS011;63318;52.406;13.416;2022-09-13T14:30:20;8.10;;;6.00;;
74789;SDS011;63318;52.406;13.416;2022-09-13T14:32:50;8.90;;;6.80;;
74789;SDS011;63318;52.406;13.416;2022-09-13T14:35:24;11.50;;;6.20;;
74789;SDS011;63318;52.406;13.416;2022-09-13T14:37:56;10.00;;;6.30;;
74789;SDS011;63318;52.406;13.416;2022-09-13T14:40:38;12.10;;;6.60;;
74789;SDS011;63318;52.406;13.416;2022-09-13T14:43:13;9.60;;;6.40;;
74789;SDS011;63318;52.406;13.416;2022-09-13T14:45:44;9.70;;;5.70;;
74789;SDS011;63318;52.406;13.416;2022-09-13T14:48:15;10.10;;;6.10;;
74789;SDS011;63318;52.406;13.416;2022-09-13T14:50:49;9.80;;;6.10;;
74789;SDS011;63318;52.406;13.416;2022-09-13T14:53:21;8.70;;;5.70;;
74789;SDS011;63318;52.406;13.416;2022-09-13T14:55:53;9.70;;;7.00;;
74789;SDS011;63318;52.406;13.416;2022-09-13T15:00:56;9.90;;;5.60;;
74789;SDS011;63318;52.406;13.416;2022-09-13T15:03:26;7.90;;;5.70;;
74789;SDS011;63318;52.406;13.416;2022-09-13T15:05:55;8.30;;;4.90;;
74789;SDS011;63318;52.406;13.416;2022-09-13T15:08:38;8.10;;;5.00;;
74789;SDS011;63318;52.406;13.416;2022-09-13T15:11:14;7.70;;;5.10;;
74789;SDS011;63318;52.406;13.416;2022-09-13T15:14:00;7.60;;;5.50;;
74789;SDS011;63318;52.406;13.416;2022-09-13T15:16:57;6.50;;;4.60;;
74789;SDS011;63318;52.406;13.416;2022-09-13T15:22:04;8.10;;;4.90;;
74789;SDS011;63318;52.406;13.416;2022-09-13T15:24:41;7.20;;;4.20;;
74789;SDS011;63318;52.406;13.416;2022-09-13T15:27:17;6.40;;;3.80;;
74789;SDS011;63318;52.406;13.416;2022-09-13T15:29:54;6.10;;;4.10;;
74789;SDS011;63318;52.406;13.416;2022-09-13T15:32:29;6.10;;;4.00;;
74789;SDS011;63318;52.406;13.416;2022-09-13T15:34:59;6.60;;;4.20;;
74789;SDS011;63318;52.406;13.416;2022-09-13T15:37:32;8.00;;;4.10;;
74789;SDS011;63318;52.406;13.416;2022-09-13T15:40:07;6.10;;;3.90;;
74789;SDS011;63318;52.406;13.416;2022-09-13T15:42:39;6.70;;;3.70;;
74789;SDS011;63318;52.406;13.416;2022-09-13T15:45:10;6.20;;;3.40;;
74789;SDS011;63318;52.406;13.416;2022-09-13T15:47:38;5.60;;;3.30;;
74789;SDS011;63318;52.406;13.416;2022-09-13T15:50:09;4.80;;;2.60;;
74789;SDS011;63318;52.406;13.416;2022-09-13T15:52:47;6.50;;;2.80;;
74789;SDS011;63318;52.406;13.416;2022-09-13T15:55:15;5.90;;;3.20;;
74789;SDS011;63318;52.406;13.416;2022-09-13T15:57:43;5.70;;;3.00;;
74789;SDS011;63318;52.406;13.416;2022-09-13T16:00:17;5.80;;;2.90;;
74789;SDS011;63318;52.406;13.416;2022-09-13T16:02:47;5.50;;;3.10;;
74789;SDS011;63318;52.406;13.416;2022-09-13T16:05:15;5.70;;;3.10;;
74789;SDS011;63318;52.406;13.416;2022-09-13T16:07:44;5.10;;;3.00;;
74789;SDS011;63318;52.406;13.416;2022-09-13T16:10:13;17.00;;;3.20;;
74789;SDS011;63318;52.406;13.416;2022-09-13T16:12:43;5.50;;;3.00;;
74789;SDS011;63318;52.406;13.416;2022-09-13T16:15:11;6.30;;;2.80;;
74789;SDS011;63318;52.406;13.416;2022-09-13T16:17:40;5.30;;;2.90;;